createdAt,value
2018-06-12T00:00:03.691Z,48.60
2018-06-12T00:02:32.130Z,48.60
2018-06-12T00:05:00.766Z,48.60
2018-06-12T00:07:29.259Z,48.60
2018-06-12T00:09:57.594Z,48.70
2018-06-12T00:12:32.550Z,48.70
2018-06-12T00:15:00.987Z,48.80
2018-06-12T00:19:57.844Z,48.80
2018-06-12T00:22:26.347Z,48.80
2018-06-12T00:24:54.725Z,48.70
2018-06-12T00:27:23.180Z,48.70
2018-06-12T00:29:51.592Z,48.60
2018-06-12T00:32:26.626Z,48.70
2018-06-12T00:34:55.056Z,48.80
2018-06-12T00:37:23.547Z,48.90
2018-06-12T00:39:51.922Z,49.00
2018-06-12T00:42:20.290Z,48.90
2018-06-12T00:44:48.686Z,49.00
2018-06-12T00:49:52.514Z,49.00
2018-06-12T00:52:21.218Z,49.10
2018-06-12T00:54:49.514Z,49.00
2018-06-12T00:57:17.847Z,49.00
2018-06-12T00:59:46.143Z,49.10
2018-06-12T01:02:14.544Z,49.10
2018-06-12T01:04:42.904Z,49.10
2018-06-12T01:07:11.237Z,49.20
2018-06-12T01:09:45.712Z,49.20
2018-06-12T01:12:14.090Z,49.20
2018-06-12T01:14:42.651Z,49.20
2018-06-12T01:17:10.967Z,49.20
2018-06-12T01:19:39.371Z,49.20
2018-06-12T01:22:07.870Z,49.30
2018-06-12T01:24:36.245Z,49.30
2018-06-12T01:27:06.142Z,49.40
2018-06-12T01:29:34.511Z,49.40
2018-06-12T01:32:02.854Z,49.50
2018-06-12T01:34:31.162Z,49.50
2018-06-12T01:36:59.615Z,49.50
2018-06-12T01:39:28.096Z,49.40
2018-06-12T01:41:56.420Z,49.50
2018-06-12T01:44:24.761Z,49.60
2018-06-12T01:46:53.083Z,49.60
2018-06-12T01:49:21.525Z,49.50
2018-06-12T01:51:49.924Z,49.50
2018-06-12T01:54:18.313Z,49.70
2018-06-12T01:56:46.633Z,49.70
2018-06-12T01:59:14.940Z,49.80
2018-06-12T02:01:43.268Z,49.80
2018-06-12T02:04:11.606Z,49.90
2018-06-12T02:06:39.919Z,49.90
2018-06-12T02:09:08.276Z,49.90
2018-06-12T02:11:43.185Z,50.00
2018-06-12T02:14:11.616Z,50.00
2018-06-12T02:16:39.903Z,50.00
2018-06-12T02:19:08.216Z,49.90
2018-06-12T02:21:36.779Z,49.90
2018-06-12T02:24:05.951Z,50.00
2018-06-12T02:26:34.320Z,50.00
2018-06-12T02:29:02.693Z,49.90
2018-06-12T02:31:31.133Z,50.10
2018-06-12T02:33:59.489Z,50.10
2018-06-12T02:36:27.952Z,50.10
2018-06-12T02:38:56.301Z,50.20
2018-06-12T02:41:24.660Z,50.20
2018-06-12T02:43:53.069Z,50.20
2018-06-12T02:46:21.484Z,50.20
2018-06-12T02:48:49.840Z,50.10
2018-06-12T02:51:18.427Z,50.10
2018-06-12T02:53:46.764Z,50.20
2018-06-12T02:56:15.096Z,50.30
2018-06-12T02:58:43.457Z,50.40
2018-06-12T03:01:11.839Z,50.50
2018-06-12T03:03:40.351Z,50.60
2018-06-12T03:06:08.793Z,50.60
2018-06-12T03:08:37.230Z,50.50
2018-06-12T03:13:34.127Z,50.60
2018-06-12T03:16:02.571Z,50.30
2018-06-12T03:18:31.029Z,50.30
2018-06-12T03:20:59.393Z,50.30
2018-06-12T03:23:27.708Z,50.30
2018-06-12T03:25:59.055Z,50.30
2018-06-12T03:30:55.420Z,50.30
2018-06-12T03:33:23.799Z,50.20
2018-06-12T03:35:52.138Z,50.20
2018-06-12T03:38:20.476Z,50.30
2018-06-12T03:40:48.858Z,50.30
2018-06-12T03:43:17.258Z,50.30
2018-06-12T03:45:45.684Z,50.30
2018-06-12T03:48:14.143Z,50.50
2018-06-12T03:50:42.547Z,50.50
2018-06-12T03:53:10.860Z,50.50
2018-06-12T03:55:39.260Z,50.50
2018-06-12T03:58:08.402Z,50.60
2018-06-12T04:00:36.819Z,50.60
2018-06-12T04:03:05.227Z,50.60
2018-06-12T04:05:33.589Z,50.60
2018-06-12T04:08:01.956Z,50.60
2018-06-12T04:10:30.405Z,50.60
2018-06-12T04:12:58.777Z,50.60
2018-06-12T04:15:27.294Z,50.60
2018-06-12T04:17:55.675Z,50.60
2018-06-12T04:20:24.054Z,50.70
2018-06-12T04:22:52.335Z,50.70
2018-06-12T04:25:20.817Z,50.70
2018-06-12T04:27:49.135Z,50.60
2018-06-12T04:30:17.457Z,50.70
2018-06-12T04:32:45.885Z,50.60
2018-06-12T04:35:14.497Z,51.30
2018-06-12T04:37:43.045Z,50.50
2018-06-12T04:40:11.702Z,50.50
2018-06-12T04:42:40.294Z,50.60
2018-06-12T04:45:09.015Z,50.60
2018-06-12T04:47:37.436Z,50.60
2018-06-12T04:52:34.154Z,50.60
2018-06-12T04:55:02.687Z,50.70
2018-06-12T04:57:31.070Z,50.60
2018-06-12T04:59:59.517Z,50.60
2018-06-12T05:02:27.891Z,50.70
2018-06-12T05:04:56.375Z,50.60
2018-06-12T05:07:24.766Z,50.70
2018-06-12T05:09:53.185Z,50.60
2018-06-12T05:12:21.493Z,50.90
2018-06-12T05:14:49.940Z,50.40
2018-06-12T05:17:18.665Z,50.40
2018-06-12T05:19:47.075Z,50.40
2018-06-12T05:22:15.464Z,50.40
2018-06-12T05:24:44.093Z,50.30
2018-06-12T05:27:12.713Z,50.20
2018-06-12T05:29:41.368Z,50.20
2018-06-12T05:32:10.180Z,50.20
2018-06-12T05:34:38.703Z,50.10
2018-06-12T05:37:07.227Z,50.10
2018-06-12T05:39:35.743Z,50.10
2018-06-12T05:42:04.112Z,50.60
2018-06-12T05:44:32.437Z,50.00
2018-06-12T05:47:00.794Z,49.90
2018-06-12T05:49:29.142Z,49.90
2018-06-12T05:51:57.520Z,49.90
2018-06-12T05:54:26.008Z,49.90
2018-06-12T05:56:54.412Z,49.90
2018-06-12T05:59:22.760Z,50.00
2018-06-12T06:01:51.113Z,50.00
2018-06-12T06:04:19.510Z,50.00
2018-06-12T06:06:47.932Z,50.00
2018-06-12T06:11:44.377Z,50.00
2018-06-12T06:14:12.826Z,50.20
2018-06-12T06:16:41.295Z,50.10
2018-06-12T06:19:09.748Z,50.20
2018-06-12T06:21:38.103Z,50.30
2018-06-12T06:24:06.471Z,50.40
2018-06-12T06:26:35.784Z,51.00
2018-06-12T06:29:04.105Z,51.00
2018-06-12T06:31:32.452Z,50.60
2018-06-12T06:34:00.823Z,50.60
2018-06-12T06:36:29.147Z,50.50
2018-06-12T06:38:57.437Z,50.50
2018-06-12T06:41:25.778Z,50.50
2018-06-12T06:43:54.189Z,50.50
2018-06-12T06:46:22.523Z,50.60
2018-06-12T06:48:50.904Z,50.60
2018-06-12T06:51:19.319Z,51.20
2018-06-12T06:53:47.670Z,50.60
2018-06-12T06:56:16.045Z,50.60
2018-06-12T06:58:44.463Z,50.70
2018-06-12T07:01:12.920Z,50.80
2018-06-12T07:03:41.252Z,50.80
2018-06-12T07:06:09.687Z,50.90
2018-06-12T07:08:38.116Z,50.90
2018-06-12T07:11:06.497Z,50.90
2018-06-12T07:13:34.830Z,51.00
2018-06-12T07:16:03.153Z,51.10
2018-06-12T07:18:31.504Z,51.20
2018-06-12T07:21:07.742Z,51.30
2018-06-12T07:23:36.170Z,51.40
2018-06-12T07:26:04.524Z,51.50
2018-06-12T07:28:32.812Z,51.40
2018-06-12T07:31:01.170Z,51.40
2018-06-12T07:33:29.524Z,51.40
2018-06-12T07:35:57.910Z,51.30
2018-06-12T07:38:26.193Z,51.30
2018-06-12T07:40:54.545Z,51.30
2018-06-12T07:43:22.909Z,51.20
2018-06-12T07:45:51.279Z,51.30
2018-06-12T07:48:19.632Z,51.30
2018-06-12T07:50:47.958Z,51.30
2018-06-12T07:53:16.325Z,51.30
2018-06-12T07:55:44.630Z,51.20
2018-06-12T07:58:13.141Z,51.20
2018-06-12T08:00:41.484Z,51.10
2018-06-12T08:03:09.837Z,51.20
2018-06-12T08:05:38.244Z,51.10
2018-06-12T08:08:06.730Z,51.30
2018-06-12T08:10:35.255Z,51.80
2018-06-12T08:13:03.658Z,51.20
2018-06-12T08:15:31.998Z,51.10
2018-06-12T08:18:00.334Z,51.10
2018-06-12T08:20:28.681Z,51.10
2018-06-12T08:22:57.056Z,51.20
2018-06-12T08:25:31.787Z,51.20
2018-06-12T08:28:00.164Z,51.30
2018-06-12T08:30:28.625Z,51.30
2018-06-12T08:32:57.028Z,51.20
2018-06-12T08:35:25.463Z,51.20
2018-06-12T08:37:53.857Z,51.10
2018-06-12T08:40:22.196Z,51.20
2018-06-12T08:42:50.683Z,51.20
2018-06-12T08:45:19.011Z,51.80
2018-06-12T08:47:47.568Z,51.90
2018-06-12T08:50:16.007Z,51.60
2018-06-12T08:52:44.304Z,51.80
2018-06-12T08:55:12.667Z,51.90
2018-06-12T08:57:41.019Z,52.00
2018-06-12T09:00:09.334Z,52.00
2018-06-12T09:02:37.889Z,52.00
2018-06-12T09:05:06.276Z,52.20
2018-06-12T09:07:34.759Z,52.20
2018-06-12T09:10:03.672Z,52.10
2018-06-12T09:12:32.181Z,52.10
2018-06-12T09:15:00.700Z,52.20
2018-06-12T09:17:29.116Z,52.30
2018-06-12T09:19:57.515Z,52.40
2018-06-12T09:22:26.077Z,52.40
2018-06-12T09:24:54.343Z,52.10
2018-06-12T09:27:22.650Z,52.00
2018-06-12T09:29:50.983Z,51.80
2018-06-12T09:32:19.360Z,51.70
2018-06-12T09:34:47.683Z,51.60
2018-06-12T09:37:16.195Z,51.50
2018-06-12T09:39:44.518Z,51.30
2018-06-12T09:42:12.873Z,51.30
2018-06-12T09:44:41.357Z,51.20
2018-06-12T09:47:09.820Z,51.20
2018-06-12T09:49:38.152Z,51.00
2018-06-12T09:52:06.620Z,50.90
2018-06-12T09:54:35.031Z,50.80
2018-06-12T09:57:03.561Z,51.00
2018-06-12T09:59:32.034Z,51.00
2018-06-12T10:02:00.380Z,51.10
2018-06-12T10:04:28.681Z,51.10
2018-06-12T10:06:57.693Z,51.10
2018-06-12T10:09:26.062Z,51.10
2018-06-12T10:11:54.524Z,51.20
2018-06-12T10:14:22.882Z,51.30
2018-06-12T10:16:51.251Z,51.30
2018-06-12T10:19:19.610Z,51.50
2018-06-12T10:21:47.916Z,51.50
2018-06-12T10:24:16.522Z,51.50
2018-06-12T10:26:44.948Z,51.50
2018-06-12T10:29:13.246Z,51.60
2018-06-12T10:31:41.606Z,51.50
2018-06-12T10:34:10.053Z,51.60
2018-06-12T10:36:41.273Z,51.60
2018-06-12T10:39:10.240Z,51.70
2018-06-12T10:41:38.847Z,51.70
2018-06-12T10:44:07.425Z,51.60
2018-06-12T10:46:35.768Z,51.60
2018-06-12T10:49:04.100Z,51.70
2018-06-12T10:51:32.477Z,51.70
2018-06-12T10:54:00.883Z,51.80
2018-06-12T10:56:29.256Z,52.00
2018-06-12T10:58:57.516Z,52.00
2018-06-12T11:01:25.838Z,52.00
2018-06-12T11:03:54.235Z,52.10
2018-06-12T11:06:22.577Z,52.30
2018-06-12T11:08:50.873Z,52.60
2018-06-12T11:13:47.284Z,53.00
2018-06-12T11:16:15.646Z,52.90
2018-06-12T11:18:44.253Z,53.00
2018-06-12T11:21:12.677Z,52.90
2018-06-12T11:23:41.038Z,52.90
2018-06-12T11:26:09.365Z,52.80
2018-06-12T11:28:37.894Z,52.80
2018-06-12T11:31:06.539Z,52.60
2018-06-12T11:33:34.911Z,52.60
2018-06-12T11:36:03.210Z,52.50
2018-06-12T11:38:31.648Z,52.40
2018-06-12T11:40:59.970Z,52.30
2018-06-12T11:43:28.455Z,52.40
2018-06-12T11:45:57.055Z,53.10
2018-06-12T11:48:25.420Z,52.60
2018-06-12T11:50:54.375Z,53.00
2018-06-12T11:53:23.165Z,53.70
2018-06-12T11:55:52.692Z,53.20
2018-06-12T11:58:21.027Z,53.40
2018-06-12T12:00:49.415Z,53.30
2018-06-12T12:03:18.198Z,53.10
2018-06-12T12:05:46.603Z,52.90
2018-06-12T12:08:15.113Z,52.70
2018-06-12T12:10:43.509Z,52.50
2018-06-12T12:13:11.875Z,52.50
2018-06-12T12:15:40.217Z,52.50
2018-06-12T12:18:08.626Z,52.40
2018-06-12T12:20:37.092Z,52.30
2018-06-12T12:23:05.723Z,52.20
2018-06-12T12:25:34.112Z,52.20
2018-06-12T12:30:30.760Z,52.30
2018-06-12T12:32:59.089Z,52.30
2018-06-12T12:35:27.475Z,52.30
2018-06-12T12:37:55.893Z,52.00
2018-06-12T12:40:24.291Z,51.60
2018-06-12T12:42:52.599Z,51.30
2018-06-12T12:45:21.112Z,51.30
2018-06-12T12:47:49.459Z,51.10
2018-06-12T12:50:17.796Z,50.90
2018-06-12T12:52:46.122Z,51.00
2018-06-12T12:55:14.664Z,51.00
2018-06-12T12:57:43.280Z,51.00
2018-06-12T13:00:11.619Z,50.80
2018-06-12T13:02:40.030Z,50.60
2018-06-12T13:05:08.344Z,50.40
2018-06-12T13:07:36.721Z,50.40
2018-06-12T13:10:05.145Z,50.40
2018-06-12T13:12:33.523Z,50.30
2018-06-12T13:15:01.817Z,50.20
2018-06-12T13:17:30.224Z,50.10
2018-06-12T13:19:58.618Z,50.00
2018-06-12T13:22:28.772Z,50.10
2018-06-12T13:24:57.214Z,50.00
2018-06-12T13:27:25.829Z,50.00
2018-06-12T13:29:54.182Z,50.20
2018-06-12T13:32:22.577Z,50.20
2018-06-12T13:34:50.923Z,50.20
2018-06-12T13:37:19.445Z,50.10
2018-06-12T13:39:47.822Z,49.90
2018-06-12T13:42:16.168Z,49.80
2018-06-12T13:44:44.527Z,49.70
2018-06-12T13:47:12.848Z,49.60
2018-06-12T13:49:41.241Z,49.40
2018-06-12T13:52:09.558Z,49.30
2018-06-12T13:54:38.004Z,49.20
2018-06-12T13:57:06.406Z,49.10
2018-06-12T13:59:34.858Z,49.30
2018-06-12T14:02:03.236Z,49.40
2018-06-12T14:04:31.788Z,49.50
2018-06-12T14:07:00.128Z,49.60
2018-06-12T14:09:28.665Z,49.60
2018-06-12T14:11:57.073Z,49.50
2018-06-12T14:14:25.537Z,49.50
2018-06-12T14:16:54.167Z,49.60
2018-06-12T14:19:22.803Z,49.60
2018-06-12T14:21:51.228Z,49.40
2018-06-12T14:24:19.763Z,49.20
2018-06-12T14:26:48.152Z,49.00
2018-06-12T14:29:16.680Z,48.80
2018-06-12T14:31:44.968Z,48.60
2018-06-12T14:34:13.316Z,48.50
2018-06-12T14:36:41.655Z,48.50
2018-06-12T14:39:10.072Z,48.50
2018-06-12T14:41:39.480Z,48.40
2018-06-12T14:44:08.054Z,48.30
2018-06-12T14:46:36.485Z,48.30
2018-06-12T14:49:04.937Z,48.10
2018-06-12T14:51:33.344Z,48.10
2018-06-12T14:54:01.834Z,48.10
2018-06-12T14:56:30.315Z,48.20
2018-06-12T14:58:58.651Z,48.20
2018-06-12T15:01:27.045Z,48.30
2018-06-12T15:03:55.683Z,48.40
2018-06-12T15:06:24.476Z,48.30
2018-06-12T15:08:52.826Z,48.20
2018-06-12T15:13:49.448Z,48.10
2018-06-12T15:16:17.829Z,48.10
2018-06-12T15:18:46.134Z,48.10
2018-06-12T15:21:14.515Z,48.00
2018-06-12T15:23:43.495Z,48.00
2018-06-12T15:26:11.902Z,48.00
2018-06-12T15:28:40.639Z,48.10
2018-06-12T15:31:09.194Z,48.00
2018-06-12T15:33:37.629Z,48.00
2018-06-12T15:36:06.102Z,47.90
2018-06-12T15:38:34.642Z,47.90
2018-06-12T15:41:03.063Z,47.90
2018-06-12T15:43:31.754Z,47.80
2018-06-12T15:46:00.258Z,47.90
2018-06-12T15:48:28.640Z,48.00
2018-06-12T15:50:56.992Z,47.90
2018-06-12T15:53:25.588Z,48.00
2018-06-12T15:55:53.978Z,48.00
2018-06-12T15:58:22.351Z,48.10
2018-06-12T16:00:50.787Z,48.10
2018-06-12T16:03:19.151Z,48.00
2018-06-12T16:05:47.541Z,48.00
2018-06-12T16:08:15.892Z,48.00
2018-06-12T16:10:44.313Z,47.90
2018-06-12T16:13:12.679Z,47.90
2018-06-12T16:15:41.133Z,47.90
2018-06-12T16:18:09.810Z,47.90
2018-06-12T16:20:38.553Z,47.90
2018-06-12T16:23:07.050Z,47.90
2018-06-12T16:25:35.614Z,47.90
2018-06-12T16:28:04.428Z,48.60
2018-06-12T16:30:32.809Z,48.00
2018-06-12T16:33:01.279Z,47.80
2018-06-12T16:35:30.030Z,47.80
2018-06-12T16:37:58.481Z,47.80
2018-06-12T16:40:27.042Z,47.80
2018-06-12T16:42:55.610Z,47.80
2018-06-12T16:45:24.086Z,47.80
2018-06-12T16:47:52.455Z,47.70
2018-06-12T16:50:20.818Z,47.80
2018-06-12T16:52:49.116Z,47.70
2018-06-12T16:55:17.477Z,47.70
2018-06-12T16:57:45.880Z,47.80
2018-06-12T17:00:14.247Z,47.80
2018-06-12T17:02:42.940Z,47.90
2018-06-12T17:05:11.586Z,47.90
2018-06-12T17:07:40.200Z,47.80
2018-06-12T17:10:10.793Z,47.80
2018-06-12T17:12:39.538Z,47.70
2018-06-12T17:15:08.088Z,47.50
2018-06-12T17:17:36.875Z,47.40
2018-06-12T17:20:05.333Z,47.30
2018-06-12T17:22:33.953Z,47.20
2018-06-12T17:25:02.697Z,47.10
2018-06-12T17:27:31.326Z,47.10
2018-06-12T17:30:00.095Z,47.00
2018-06-12T17:32:28.452Z,46.90
2018-06-12T17:34:56.884Z,46.90
2018-06-12T17:37:25.291Z,46.90
2018-06-12T17:39:53.713Z,47.00
2018-06-12T17:42:22.192Z,47.00
2018-06-12T17:44:50.536Z,47.00
2018-06-12T17:47:18.953Z,47.00
2018-06-12T17:49:47.523Z,46.80
2018-06-12T17:52:15.903Z,46.80
2018-06-12T17:54:44.387Z,46.80
2018-06-12T17:57:12.877Z,46.80
2018-06-12T17:59:41.340Z,46.90
2018-06-12T18:02:09.914Z,46.90
2018-06-12T18:04:38.581Z,46.90
2018-06-12T18:07:07.224Z,46.90
2018-06-12T18:09:36.048Z,46.90
2018-06-12T18:12:04.640Z,46.90
2018-06-12T18:14:33.419Z,46.90
2018-06-12T18:17:01.848Z,46.90
2018-06-12T18:19:30.313Z,46.80
2018-06-12T18:21:58.721Z,46.80
2018-06-12T18:24:27.342Z,46.80
2018-06-12T18:26:55.685Z,46.80
2018-06-12T18:29:24.208Z,46.80
2018-06-12T18:31:52.647Z,46.70
2018-06-12T18:34:22.160Z,46.80
2018-06-12T18:36:50.969Z,46.80
2018-06-12T18:39:19.299Z,46.80
2018-06-12T18:41:47.687Z,46.90
2018-06-12T18:46:44.354Z,46.90
2018-06-12T18:49:12.883Z,46.90
2018-06-12T18:51:41.367Z,46.90
2018-06-12T18:54:09.853Z,46.90
2018-06-12T18:56:38.295Z,46.90
2018-06-12T18:59:06.667Z,47.00
2018-06-12T19:01:35.165Z,47.00
2018-06-12T19:04:03.625Z,46.80
2018-06-12T19:06:32.081Z,46.90
2018-06-12T19:09:00.823Z,47.00
2018-06-12T19:11:29.495Z,47.00
2018-06-12T19:13:58.015Z,47.00
2018-06-12T19:16:26.381Z,47.10
2018-06-12T19:18:54.729Z,47.10
2018-06-12T19:21:23.229Z,47.10
2018-06-12T19:23:51.579Z,47.20
2018-06-12T19:26:20.461Z,47.20
2018-06-12T19:28:49.003Z,47.40
2018-06-12T19:31:17.417Z,47.20
2018-06-12T19:33:45.825Z,47.30
2018-06-12T19:36:14.272Z,47.30
2018-06-12T19:38:43.130Z,47.30
2018-06-12T19:41:11.622Z,47.30
2018-06-12T19:43:40.237Z,47.30
2018-06-12T19:46:08.732Z,47.30
2018-06-12T19:48:37.295Z,47.30
2018-06-12T19:51:06.097Z,47.30
2018-06-12T19:53:34.679Z,47.20
2018-06-12T19:56:03.307Z,47.10
2018-06-12T19:58:32.168Z,47.30
2018-06-12T20:01:00.841Z,47.30
2018-06-12T20:03:29.373Z,47.20
2018-06-12T20:05:57.835Z,47.30
2018-06-12T20:08:26.199Z,47.40
2018-06-12T20:10:54.557Z,47.40
2018-06-12T20:13:22.991Z,47.40
2018-06-12T20:15:51.485Z,47.30
2018-06-12T20:18:20.311Z,47.20
2018-06-12T20:20:48.683Z,47.20
2018-06-12T20:23:17.132Z,47.10
2018-06-12T20:25:45.824Z,47.20
2018-06-12T20:28:14.228Z,47.10
2018-06-12T20:30:42.912Z,47.00
2018-06-12T20:33:11.350Z,47.00
2018-06-12T20:35:39.906Z,46.90
2018-06-12T20:38:08.594Z,46.90
2018-06-12T20:40:37.360Z,46.80
2018-06-12T20:43:06.188Z,46.80
2018-06-12T20:45:34.674Z,46.70
2018-06-12T20:48:03.145Z,46.70
2018-06-12T20:50:32.019Z,46.70
2018-06-12T20:53:00.485Z,46.70
2018-06-12T20:55:29.008Z,46.60
2018-06-12T20:57:58.098Z,46.60
2018-06-12T21:00:26.450Z,46.60
2018-06-12T21:02:54.875Z,46.60
2018-06-12T21:05:23.405Z,46.60
2018-06-12T21:07:51.868Z,46.50
2018-06-12T21:10:20.270Z,46.50
2018-06-12T21:12:48.616Z,46.60
2018-06-12T21:15:16.981Z,46.70
2018-06-12T21:17:45.348Z,46.70
2018-06-12T21:20:13.915Z,46.70
2018-06-12T21:22:42.328Z,46.80
2018-06-12T21:25:10.849Z,46.90
2018-06-12T21:27:39.176Z,46.90
2018-06-12T21:30:07.643Z,47.00
2018-06-12T21:32:36.595Z,46.90
2018-06-12T21:35:05.144Z,46.80
2018-06-12T21:37:33.743Z,46.80
2018-06-12T21:40:02.213Z,46.80
2018-06-12T21:42:30.779Z,46.70
2018-06-12T21:44:59.335Z,46.60
2018-06-12T21:47:27.741Z,46.60
2018-06-12T21:49:56.143Z,46.60
2018-06-12T21:52:24.526Z,46.50
2018-06-12T21:54:53.069Z,46.40
2018-06-12T21:57:21.743Z,46.40
2018-06-12T21:59:51.516Z,46.50
2018-06-12T22:02:19.898Z,46.50
2018-06-12T22:04:48.253Z,46.50
2018-06-12T22:07:16.673Z,47.00
2018-06-12T22:09:46.558Z,47.10
2018-06-12T22:12:14.977Z,46.40
2018-06-12T22:14:43.438Z,46.40
2018-06-12T22:17:13.002Z,46.40
2018-06-12T22:19:41.436Z,46.30
2018-06-12T22:22:09.953Z,46.20
2018-06-12T22:24:38.453Z,46.40
2018-06-12T22:27:06.892Z,46.30
2018-06-12T22:29:36.153Z,46.20
2018-06-12T22:32:04.658Z,46.30
2018-06-12T22:34:33.588Z,46.40
2018-06-12T22:37:01.971Z,46.40
2018-06-12T22:39:45.113Z,46.30
2018-06-12T22:42:13.641Z,46.30
2018-06-12T22:47:30.690Z,46.50
2018-06-12T22:49:59.181Z,46.40
2018-06-12T22:52:27.602Z,46.50
2018-06-12T22:54:55.915Z,46.60
2018-06-12T22:57:24.248Z,46.60
2018-06-12T22:59:52.603Z,46.70
2018-06-12T23:02:20.929Z,46.60
2018-06-12T23:04:49.426Z,46.40
2018-06-12T23:07:17.781Z,46.30
2018-06-12T23:09:46.070Z,46.30
2018-06-12T23:12:14.681Z,46.30
2018-06-12T23:14:43.084Z,46.20
2018-06-12T23:17:11.569Z,46.30
2018-06-12T23:19:51.064Z,46.30
2018-06-12T23:22:19.395Z,46.40
2018-06-12T23:24:47.831Z,46.10
2018-06-12T23:27:16.209Z,46.00
2018-06-12T23:29:44.515Z,46.00
2018-06-12T23:32:12.868Z,45.90
2018-06-12T23:34:41.429Z,45.90
2018-06-12T23:37:09.892Z,46.00
2018-06-12T23:39:38.289Z,46.00
2018-06-12T23:42:06.580Z,46.10
2018-06-12T23:44:35.036Z,46.20
2018-06-12T23:47:03.396Z,46.10
2018-06-12T23:49:32.113Z,46.10
2018-06-12T23:52:00.416Z,46.10
2018-06-12T23:54:28.758Z,46.10
2018-06-12T23:56:57.143Z,46.00
2018-06-12T23:59:25.787Z,46.00
